Time;durP1;ratioP1;P1;durP2;ratioP2;P2;SDS_P1;SDS_P2;PMS_P1;PMS_P2;Temp;Humidity;BMP_temperature;BMP_pressure;BME280_temperature;BME280_humidity;BME280_pressure;Samples;Min_cycle;Max_cycle;Signal;HPM_P1;HPM_P2
2022/06/13 00:00:28;;;;;;;5.32;3.58;;;20.10;99.90;;;;;;5034612;28;20178;-35
2022/06/13 00:02:54;;;;;;;7.80;4.20;;;20.10;99.90;;;;;;5018363;28;20188;-38
2022/06/13 00:05:19;;;;;;;4.75;2.97;;;20.10;99.90;;;;;;5018065;28;20210;-36
2022/06/13 00:07:46;;;;;;;3.47;2.90;;;20.10;99.90;;;;;;5034699;28;20182;-36
2022/06/13 00:10:13;;;;;;;3.75;2.70;;;20.10;99.90;;;;;;5018252;28;20224;-35
2022/06/13 00:12:40;;;;;;;3.88;2.80;;;20.00;99.90;;;;;;5034493;28;20182;-35
2022/06/13 00:15:08;;;;;;;3.25;2.95;;;19.90;99.90;;;;;;5034323;28;20209;-35
2022/06/13 00:17:33;;;;;;;9.30;2.97;;;19.80;99.90;;;;;;5034563;28;20193;-36
2022/06/13 00:19:59;;;;;;;6.35;5.75;;;19.80;99.90;;;;;;5018153;28;20182;-41
2022/06/13 00:22:25;;;;;;;7.57;6.97;;;19.70;99.90;;;;;;5034476;28;20202;-37
2022/06/13 00:24:51;;;;;;;10.00;9.07;;;19.60;99.90;;;;;;5017519;28;20217;-35
2022/06/13 00:27:17;;;;;;;13.73;12.52;;;19.50;99.90;;;;;;5018110;28;20257;-36
2022/06/13 00:29:47;;;;;;;13.90;12.60;;;19.50;99.90;;;;;;5034124;28;20272;-35
2022/06/13 00:32:13;;;;;;;12.73;11.52;;;19.50;99.90;;;;;;5034139;28;20202;-36
2022/06/13 00:34:40;;;;;;;9.70;8.80;;;19.40;99.90;;;;;;5034166;28;20188;-37
2022/06/13 00:37:06;;;;;;;11.38;10.35;;;19.40;99.90;;;;;;5017949;28;20297;-34
2022/06/13 00:39:32;;;;;;;7.63;6.85;;;19.30;99.90;;;;;;5017276;28;20232;-35
2022/06/13 00:41:58;;;;;;;7.82;5.97;;;19.20;99.90;;;;;;5034114;28;20201;-36
2022/06/13 00:44:33;;;;;;;5.25;4.43;;;19.10;99.90;;;;;;5051575;28;20259;-36
2022/06/13 00:46:59;;;;;;;4.00;2.67;;;19.20;99.90;;;;;;5034268;28;20219;-34
2022/06/13 00:49:38;;;;;;;2.15;1.88;;;19.20;99.90;;;;;;5034010;28;20233;-36
2022/06/13 00:52:34;;;;;;;2.67;2.10;;;19.30;99.90;;;;;;5017292;28;20258;-36
2022/06/13 00:55:00;;;;;;;4.53;2.00;;;19.20;99.90;;;;;;5051993;28;20177;-35
2022/06/13 00:57:29;;;;;;;3.20;1.70;;;19.20;99.90;;;;;;5018596;28;20182;-37
2022/06/13 01:00:00;;;;;;;5.00;2.17;;;19.10;99.90;;;;;;5017288;28;20253;-39
2022/06/13 01:02:27;;;;;;;2.45;1.70;;;19.20;99.90;;;;;;5033569;28;20198;-36
2022/06/13 01:04:55;;;;;;;3.83;1.83;;;19.10;99.90;;;;;;5032819;28;20218;-36
2022/06/13 01:07:21;;;;;;;3.30;2.10;;;19.10;99.90;;;;;;5017268;28;20174;-36
2022/06/13 01:12:36;;;;;;;3.55;2.40;;;19.00;99.90;;;;;;5033530;28;20198;-39
2022/06/13 01:15:17;;;;;;;3.22;1.98;;;18.90;99.90;;;;;;5033193;28;20178;-38
2022/06/13 01:17:52;;;;;;;4.25;2.00;;;18.90;99.90;;;;;;5017049;28;20188;-36
2022/06/13 01:20:18;;;;;;;4.07;2.13;;;18.80;99.90;;;;;;5016942;28;20189;-37
2022/06/13 01:23:14;;;;;;;3.10;2.17;;;18.80;99.90;;;;;;5016871;28;20196;-35
2022/06/13 01:26:09;;;;;;;4.07;2.15;;;18.80;99.90;;;;;;5016315;28;20220;-40
2022/06/13 01:28:56;;;;;;;2.97;2.10;;;18.80;99.90;;;;;;5033343;28;20181;-37
2022/06/13 01:31:41;;;;;;;3.42;2.20;;;18.90;99.90;;;;;;5033075;28;20288;-38
2022/06/13 01:34:28;;;;;;;4.45;2.17;;;18.90;99.90;;;;;;5016715;28;20182;-36
2022/06/13 01:37:03;;;;;;;3.70;2.40;;;18.90;99.90;;;;;;5016798;28;20186;-35
2022/06/13 01:39:56;;;;;;;3.67;2.25;;;18.90;99.90;;;;;;5016681;28;20259;-35
2022/06/13 01:42:46;;;;;;;2.90;2.05;;;18.90;99.90;;;;;;5016284;28;20204;-35
2022/06/13 01:45:33;;;;;;;2.35;2.03;;;19.00;99.90;;;;;;5025520;28;20259;-38
2022/06/13 01:48:24;;;;;;;3.70;2.40;;;19.00;99.90;;;;;;5033160;28;20181;-41
2022/06/13 01:51:18;;;;;;;2.67;2.20;;;19.10;99.90;;;;;;5016258;28;20209;-37
2022/06/13 01:54:30;;;;;;;4.53;2.65;;;19.20;99.90;;;;;;5032760;28;20220;-36
2022/06/13 01:57:17;;;;;;;3.80;2.20;;;19.10;99.90;;;;;;5005587;28;20285;-42
2022/06/13 01:59:54;;;;;;;3.10;2.25;;;19.00;99.90;;;;;;5016224;28;20231;-38
2022/06/13 02:02:32;;;;;;;3.20;2.17;;;19.00;99.90;;;;;;5050683;28;20193;-37
2022/06/13 02:05:35;;;;;;;2.88;2.20;;;18.90;99.90;;;;;;5050163;28;20237;-36
2022/06/13 02:08:10;;;;;;;3.30;2.00;;;18.80;99.90;;;;;;5016596;28;20178;-36
2022/06/13 02:10:48;;;;;;;3.75;2.20;;;18.80;99.90;;;;;;5032795;28;20268;-35
2022/06/13 02:13:22;;;;;;;2.83;2.20;;;19.00;99.90;;;;;;5032577;28;20174;-37
2022/06/13 02:15:54;;;;;;;2.30;2.10;;;19.00;99.90;;;;;;5016291;28;20188;-35
2022/06/13 02:18:36;;;;;;;3.63;2.35;;;19.00;99.90;;;;;;5032730;28;20181;-35
2022/06/13 02:21:24;;;;;;;3.00;2.17;;;19.10;99.90;;;;;;5032728;28;20194;-36
2022/06/13 02:23:57;;;;;;;2.53;2.08;;;19.10;99.90;;;;;;5032364;28;20182;-35
2022/06/13 02:26:31;;;;;;;3.80;2.10;;;19.00;99.90;;;;;;5016221;28;20192;-39
2022/06/13 02:29:15;;;;;;;5.60;2.17;;;19.00;99.90;;;;;;5016242;28;20189;-36
2022/06/13 02:31:50;;;;;;;2.55;2.00;;;19.00;99.90;;;;;;5032692;28;20205;-35
2022/06/13 02:34:26;;;;;;;3.15;2.00;;;18.90;99.90;;;;;;5050067;28;20265;-38
2022/06/13 02:37:15;;;;;;;3.13;2.15;;;18.90;99.90;;;;;;5032310;28;20182;-35
2022/06/13 02:39:48;;;;;;;3.10;1.95;;;18.90;99.90;;;;;;5003154;28;20196;-37
2022/06/13 02:42:26;;;;;;;5.38;2.53;;;18.90;99.90;;;;;;5032581;28;20194;-39
2022/06/13 02:45:10;;;;;;;2.90;2.50;;;18.90;99.90;;;;;;5015475;28;20296;-37
2022/06/13 02:48:03;;;;;;;2.90;2.60;;;18.90;99.90;;;;;;5015900;28;20180;-36
2022/06/13 02:50:50;;;;;;;4.35;2.38;;;18.90;99.90;;;;;;5050242;28;20210;-36
2022/06/13 02:53:29;;;;;;;4.28;2.05;;;18.80;99.90;;;;;;5016198;28;20174;-37
2022/06/13 02:56:13;;;;;;;4.47;2.75;;;18.90;99.90;;;;;;5032336;28;20206;-36
2022/06/13 02:59:08;;;;;;;3.13;2.53;;;18.90;99.90;;;;;;5032441;28;20181;-37
2022/06/13 03:01:39;;;;;;;3.35;2.35;;;18.90;99.90;;;;;;5032369;28;20197;-35
2022/06/13 03:04:16;;;;;;;2.72;2.10;;;18.90;99.90;;;;;;5031725;28;20182;-36
2022/06/13 03:07:13;;;;;;;6.28;2.80;;;18.80;99.90;;;;;;5033309;28;20186;-38
2022/06/13 03:09:48;;;;;;;2.72;2.30;;;18.80;99.90;;;;;;5019204;28;20213;-37
2022/06/13 03:12:46;;;;;;;3.00;2.70;;;18.70;99.90;;;;;;5019216;28;20279;-36
2022/06/13 03:15:31;;;;;;;3.40;2.58;;;18.70;99.90;;;;;;5013066;28;20219;-40
2022/06/13 03:18:12;;;;;;;3.40;2.50;;;18.70;99.90;;;;;;5019119;28;20638;-36
2022/06/13 03:20:49;;;;;;;9.02;3.15;;;18.70;99.90;;;;;;5035673;28;20277;-37
2022/06/13 03:23:26;;;;;;;3.15;2.70;;;18.70;99.90;;;;;;5046653;28;20187;-36
2022/06/13 03:26:06;;;;;;;4.00;3.20;;;18.80;99.90;;;;;;5035464;28;20210;-38
2022/06/13 03:28:47;;;;;;;7.15;3.17;;;18.70;99.90;;;;;;5053161;28;20638;-37
2022/06/13 03:31:36;;;;;;;4.47;3.42;;;18.70;99.90;;;;;;5035390;28;20288;-36
2022/06/13 03:34:08;;;;;;;4.38;2.95;;;18.80;99.90;;;;;;5034907;28;20197;-36
2022/06/13 03:36:44;;;;;;;5.45;3.80;;;18.80;99.90;;;;;;5035149;28;20178;-35
2022/06/13 03:39:25;;;;;;;4.15;3.55;;;18.90;99.90;;;;;;5018822;28;20186;-38
2022/06/13 03:41:58;;;;;;;6.80;3.28;;;18.90;99.90;;;;;;5035474;28;20193;-35
2022/06/13 03:44:48;;;;;;;3.35;3.05;;;18.90;99.90;;;;;;5052991;28;20212;-38
2022/06/13 03:47:21;;;;;;;5.38;3.25;;;18.90;99.90;;;;;;5035110;28;20189;-35
2022/06/13 03:50:05;;;;;;;6.85;3.30;;;18.80;99.90;;;;;;5035062;28;20182;-36
2022/06/13 03:52:34;;;;;;;4.72;3.38;;;18.90;99.90;;;;;;5035055;28;20220;-36
2022/06/13 03:55:09;;;;;;;5.93;3.25;;;18.90;99.90;;;;;;5034874;28;20186;-36
2022/06/13 03:57:40;;;;;;;7.90;3.20;;;18.80;99.90;;;;;;5018298;28;20181;-35
2022/06/13 04:00:14;;;;;;;6.90;3.20;;;18.80;99.90;;;;;;5035032;28;20188;-36
2022/06/13 04:02:41;;;;;;;6.85;3.55;;;18.80;99.90;;;;;;5018233;28;20184;-37
2022/06/13 04:05:21;;;;;;;3.80;2.90;;;18.80;99.90;;;;;;5034871;28;20221;-35
2022/06/13 04:07:48;;;;;;;8.45;2.97;;;18.90;99.90;;;;;;5034963;28;20277;-36
2022/06/13 04:10:16;;;;;;;2.95;2.55;;;18.90;99.90;;;;;;5052597;28;20178;-36
2022/06/13 04:13:06;;;;;;;4.57;3.05;;;18.90;99.90;;;;;;5034492;28;20205;-35
2022/06/13 04:15:58;;;;;;;3.90;2.50;;;18.90;99.90;;;;;;5034551;28;20193;-35
2022/06/13 04:18:49;;;;;;;4.10;2.55;;;18.90;99.90;;;;;;5027490;28;20190;-35
2022/06/13 04:21:53;;;;;;;2.90;2.38;;;18.90;99.90;;;;;;5034396;28;20202;-36
2022/06/13 04:24:48;;;;;;;4.18;2.40;;;18.90;99.90;;;;;;4973890;28;20215;-36
2022/06/13 04:27:23;;;;;;;4.80;2.47;;;18.80;99.90;;;;;;4974313;28;20192;-36
2022/06/13 04:30:09;;;;;;;4.00;2.42;;;18.80;99.90;;;;;;5003419;28;20280;-35
2022/06/13 04:32:47;;;;;;;2.67;2.08;;;18.70;99.90;;;;;;5014571;28;20174;-35
2022/06/13 04:35:14;;;;;;;3.72;2.35;;;18.50;99.90;;;;;;4998066;28;20190;-35
2022/06/13 04:37:41;;;;;;;3.00;2.25;;;18.50;99.90;;;;;;5014526;28;20221;-35
2022/06/13 04:40:19;;;;;;;5.45;3.83;;;18.40;99.90;;;;;;5014294;28;20256;-36
2022/06/13 04:42:47;;;;;;;3.28;2.30;;;18.30;99.90;;;;;;5014458;28;20183;-35
2022/06/13 04:45:25;;;;;;;3.33;2.45;;;18.30;99.90;;;;;;5014032;28;20245;-35
2022/06/13 04:47:53;;;;;;;3.28;2.22;;;18.30;99.90;;;;;;5014453;28;20768;-35
2022/06/13 04:50:43;;;;;;;3.60;2.10;;;18.30;99.90;;;;;;5013783;28;20209;-35
2022/06/13 04:53:19;;;;;;;3.30;2.38;;;18.40;99.90;;;;;;5014292;28;20192;-35
2022/06/13 04:55:47;;;;;;;6.95;2.45;;;18.40;99.90;;;;;;5010615;28;20189;-35
2022/06/13 04:58:36;;;;;;;3.88;2.28;;;18.40;99.90;;;;;;5033735;28;20192;-36
2022/06/13 05:01:33;;;;;;;5.53;2.28;;;18.50;99.90;;;;;;5017250;28;20213;-35
2022/06/13 05:04:03;;;;;;;4.45;2.20;;;18.40;99.90;;;;;;5017032;28;20186;-35
2022/06/13 05:06:36;;;;;;;3.58;2.40;;;18.40;99.90;;;;;;5017105;28;20185;-35
2022/06/13 05:09:08;;;;;;;5.40;2.50;;;18.40;99.90;;;;;;5017264;28;20178;-35
2022/06/13 05:11:37;;;;;;;3.03;2.33;;;18.40;99.90;;;;;;5033403;28;20197;-36
2022/06/13 05:14:12;;;;;;;7.75;3.35;;;18.40;99.90;;;;;;5016871;28;20177;-35
2022/06/13 05:17:05;;;;;;;3.03;2.67;;;18.40;99.90;;;;;;5016653;28;20177;-35
2022/06/13 05:19:46;;;;;;;5.10;2.53;;;18.40;99.90;;;;;;5033351;28;20185;-35
2022/06/13 05:22:21;;;;;;;4.63;2.30;;;18.50;99.90;;;;;;5033300;28;20200;-36
2022/06/13 05:25:21;;;;;;;3.50;2.47;;;18.60;99.90;;;;;;5033312;28;20208;-35
2022/06/13 05:27:47;;;;;;;3.95;2.70;;;18.70;99.90;;;;;;5050956;28;20292;-37
2022/06/13 05:30:15;;;;;;;2.60;2.30;;;18.80;99.90;;;;;;5015671;28;20261;-37
2022/06/13 05:32:42;;;;;;;6.85;2.90;;;19.00;99.90;;;;;;5016942;28;20189;-37
2022/06/13 05:35:23;;;;;;;3.15;2.22;;;19.10;99.90;;;;;;5016297;28;20201;-38
2022/06/13 05:37:50;;;;;;;4.55;2.50;;;19.20;99.90;;;;;;5016611;28;20194;-36
2022/06/13 05:40:19;;;;;;;3.22;2.40;;;19.30;99.90;;;;;;5016346;28;20186;-37
2022/06/13 05:42:46;;;;;;;3.97;2.60;;;19.50;99.90;;;;;;5016493;28;20192;-35
2022/06/13 05:45:17;;;;;;;4.20;2.75;;;19.50;99.90;;;;;;5016329;28;20658;-35
2022/06/13 05:47:46;;;;;;;3.67;2.25;;;19.60;99.90;;;;;;5016603;28;20265;-35
2022/06/13 05:50:22;;;;;;;6.40;3.05;;;19.50;99.90;;;;;;5016208;28;20189;-37
2022/06/13 05:53:38;;;;;;;4.88;2.30;;;19.50;99.90;;;;;;5074221;22;20228;-92
2022/06/13 05:57:34;;;;;;;3.88;2.60;;;19.50;99.90;;;;;;5009687;28;20259;-92
2022/06/13 06:00:01;;;;;;;4.05;2.45;;;19.20;99.90;;;;;;5011158;28;20181;-92
2022/06/13 06:02:27;;;;;;;5.18;2.80;;;19.20;99.90;;;;;;5075747;28;20197;-92
2022/06/13 06:04:53;;;;;;;5.35;2.63;;;19.30;99.90;;;;;;5056435;28;20203;-93
2022/06/13 06:07:19;;;;;;;7.30;2.90;;;19.60;99.90;;;;;;5056945;28;20199;-91
2022/06/13 06:09:45;;;;;;;3.67;2.60;;;19.80;99.90;;;;;;5056871;28;20180;-92
2022/06/13 06:12:11;;;;;;;4.35;2.25;;;20.00;99.90;;;;;;5056717;28;20235;-92
2022/06/13 06:14:36;;;;;;;4.22;2.33;;;20.00;99.90;;;;;;5056462;28;20184;-92
2022/06/13 06:17:03;;;;;;;6.95;2.97;;;20.10;99.90;;;;;;5056787;28;20237;-92
2022/06/13 06:19:29;;;;;;;12.95;2.85;;;20.30;99.90;;;;;;5056319;28;20180;-92
2022/06/13 06:21:55;;;;;;;4.50;2.60;;;20.40;99.90;;;;;;5056371;28;20207;-93
2022/06/13 06:24:21;;;;;;;8.23;2.97;;;20.20;99.90;;;;;;5056359;28;20188;-92
2022/06/13 06:26:47;;;;;;;5.60;2.70;;;20.00;99.90;;;;;;5056533;28;20185;-92
2022/06/13 06:29:13;;;;;;;4.50;2.63;;;19.90;99.90;;;;;;5056538;28;20271;-91
2022/06/13 06:31:39;;;;;;;5.32;2.70;;;19.80;99.90;;;;;;5056763;28;20665;-91
2022/06/13 06:34:05;;;;;;;6.03;2.58;;;19.60;99.90;;;;;;5056060;28;20187;-92
2022/06/13 06:36:31;;;;;;;4.45;2.63;;;19.80;99.90;;;;;;5056182;28;20200;-92
2022/06/13 06:38:57;;;;;;;4.30;2.50;;;19.70;99.90;;;;;;5056391;28;20173;-91
2022/06/13 06:41:23;;;;;;;6.28;2.70;;;19.70;99.90;;;;;;5057758;28;20223;-91
2022/06/13 06:43:49;;;;;;;5.60;3.00;;;19.70;99.90;;;;;;5060509;28;20212;-92
2022/06/13 06:46:16;;;;;;;6.88;2.97;;;19.90;99.90;;;;;;5060082;28;20235;-92
2022/06/13 06:48:42;;;;;;;6.28;2.60;;;19.90;99.90;;;;;;5060046;28;20181;-91
2022/06/13 06:51:12;;;;;;;5.47;2.83;;;20.00;99.90;;;;;;5060189;28;20223;-91
2022/06/13 07:01:52;;;;;;;5.63;2.80;;;20.50;99.90;;;;;;5077006;28;20291;-91
2022/06/13 07:04:19;;;;;;;6.53;2.67;;;20.40;99.90;;;;;;5060116;28;20709;-92
2022/06/13 07:06:45;;;;;;;7.88;2.67;;;20.50;99.90;;;;;;5061331;28;20173;-91
2022/06/13 07:09:11;;;;;;;6.10;2.75;;;20.60;99.90;;;;;;5062358;28;20173;-91
2022/06/13 07:11:56;;;;;;;7.43;3.25;;;20.50;99.90;;;;;;5078952;28;20201;-91
2022/06/13 07:14:27;;;;;;;4.82;2.70;;;20.30;99.90;;;;;;5078944;28;20176;-91
2022/06/13 07:16:53;;;;;;;8.00;2.85;;;20.30;99.90;;;;;;5061884;28;20181;-91
2022/06/13 07:19:20;;;;;;;7.88;2.80;;;20.50;99.90;;;;;;5079351;28;20204;-91
2022/06/13 07:21:46;;;;;;;4.43;2.65;;;20.60;99.90;;;;;;5061645;28;20200;-91
2022/06/13 07:24:12;;;;;;;5.38;2.30;;;20.80;99.90;;;;;;5061601;28;20234;-90
2022/06/13 07:26:39;;;;;;;6.93;2.92;;;20.80;99.90;;;;;;5061633;28;20169;-91
2022/06/13 07:29:05;;;;;;;5.95;2.75;;;20.90;99.90;;;;;;5062048;28;20185;-91
2022/06/13 07:31:58;;;;;;;7.82;2.70;;;20.90;99.90;;;;;;5061552;28;20197;-91
2022/06/13 07:34:27;;;;;;;6.65;2.90;;;21.20;99.90;;;;;;5061763;28;20188;-91
2022/06/13 07:36:55;;;;;;;8.00;2.80;;;21.20;99.90;;;;;;5061913;28;20180;-91
2022/06/13 07:39:21;;;;;;;5.55;2.65;;;21.20;99.90;;;;;;5061902;28;20204;-91
2022/06/13 07:41:48;;;;;;;4.25;3.10;;;21.30;99.90;;;;;;5063042;28;20193;-91
2022/06/13 07:44:39;;;;;;;6.63;2.80;;;21.30;99.90;;;;;;5062351;28;20204;-91
2022/06/13 07:47:06;;;;;;;7.80;3.05;;;21.30;99.90;;;;;;5060937;28;20184;-91
2022/06/13 07:49:32;;;;;;;8.60;3.20;;;21.20;99.90;;;;;;5061832;28;20177;-90
2022/06/13 07:51:58;;;;;;;5.45;2.63;;;21.20;99.90;;;;;;5077917;28;20208;-91
2022/06/13 07:54:24;;;;;;;6.45;2.50;;;21.10;99.90;;;;;;5060446;28;20188;-91
2022/06/13 07:56:50;;;;;;;5.18;2.50;;;21.30;99.90;;;;;;5060664;28;20185;-91
2022/06/13 07:59:29;;;;;;;7.18;2.50;;;21.60;99.90;;;;;;5061564;28;20180;-91
2022/06/13 08:01:57;;;;;;;6.68;2.80;;;21.70;99.90;;;;;;5060270;28;20309;-91
2022/06/13 08:04:23;;;;;;;5.25;2.97;;;21.90;99.90;;;;;;5060465;28;20188;-91
2022/06/13 08:06:48;;;;;;;7.60;2.95;;;22.00;99.90;;;;;;5060870;28;20207;-90
2022/06/13 08:09:14;;;;;;;6.63;2.60;;;22.10;99.90;;;;;;5060771;28;20181;-91
2022/06/13 08:11:46;;;;;;;4.97;2.47;;;22.30;99.90;;;;;;5060419;28;20195;-91
2022/06/13 08:14:13;;;;;;;7.82;2.80;;;22.30;99.90;;;;;;5060716;28;20184;-91
2022/06/13 08:16:39;;;;;;;5.90;2.88;;;22.30;99.90;;;;;;5060178;28;20184;-91
2022/06/13 08:19:06;;;;;;;6.35;2.80;;;22.30;99.90;;;;;;5060799;28;20196;-91
2022/06/13 08:21:35;;;;;;;9.18;2.70;;;22.40;99.90;;;;;;5060869;28;20192;-91
2022/06/13 08:24:01;;;;;;;8.60;3.25;;;22.60;99.90;;;;;;5060478;28;20202;-91
2022/06/13 08:26:27;;;;;;;6.45;2.90;;;23.00;99.90;;;;;;5060192;28;20197;-91
2022/06/13 08:28:54;;;;;;;6.72;2.95;;;23.20;99.90;;;;;;5060523;28;20177;-91
2022/06/13 08:31:22;;;;;;;4.45;2.40;;;23.30;99.90;;;;;;5060469;28;20290;-91
2022/06/13 08:33:49;;;;;;;6.93;2.88;;;23.20;99.90;;;;;;5060844;28;20196;-91
2022/06/13 08:36:15;;;;;;;8.02;3.10;;;22.90;99.90;;;;;;5061156;28;20204;-92
2022/06/13 08:38:42;;;;;;;5.88;2.72;;;22.80;99.90;;;;;;5059902;28;20180;-91
2022/06/13 08:41:15;;;;;;;4.80;2.72;;;22.90;99.90;;;;;;5059994;28;20193;-90
2022/06/13 08:44:02;;;;;;;7.35;2.90;;;22.90;99.90;;;;;;5077114;28;20253;-91
2022/06/13 08:47:02;;;;;;;5.80;3.00;;;22.90;99.90;;;;;;5060382;28;20184;-90
2022/06/13 08:49:48;;;;;;;5.85;2.63;;;22.70;99.90;;;;;;5053265;28;20189;-91
2022/06/13 08:52:47;;;;;;;10.38;2.75;;;23.10;99.90;;;;;;5077680;28;20216;-92
2022/06/13 08:55:26;;;;;;;5.85;2.75;;;23.10;99.90;;;;;;5043122;28;20277;-91
2022/06/13 08:58:05;;;;;;;8.73;2.92;;;22.80;99.90;;;;;;5060328;28;20187;-91
2022/06/13 09:00:34;;;;;;;7.15;2.75;;;23.00;99.90;;;;;;5060301;28;20208;-91
2022/06/13 09:03:18;;;;;;;5.00;2.55;;;23.00;99.90;;;;;;5059083;28;20189;-91
2022/06/13 09:06:15;;;;;;;6.35;2.40;;;23.30;99.90;;;;;;5058524;28;20183;-92
2022/06/13 09:09:02;;;;;;;4.57;2.42;;;23.70;99.90;;;;;;5051065;28;20192;-92
2022/06/13 09:12:03;;;;;;;7.15;2.55;;;23.00;99.90;;;;;;5087445;28;20211;-94
2022/06/13 09:14:48;;;;;;;4.47;2.60;;;23.10;99.90;;;;;;5061270;28;20179;-92
2022/06/13 09:17:41;;;;;;;3.20;2.00;;;23.00;99.90;;;;;;5059146;28;20261;-91
2022/06/13 09:20:26;;;;;;;4.32;2.40;;;23.00;99.90;;;;;;5058663;28;20187;-92
2022/06/13 09:23:05;;;;;;;5.53;2.88;;;23.40;99.90;;;;;;5058772;28;20201;-92
2022/06/13 09:26:02;;;;;;;4.50;2.38;;;23.60;99.90;;;;;;5058936;28;20188;-91
2022/06/13 09:28:54;;;;;;;6.82;2.70;;;23.30;99.90;;;;;;5062545;28;20177;-91
2022/06/13 09:31:27;;;;;;;5.18;2.33;;;23.20;99.90;;;;;;5060421;28;20200;-91
2022/06/13 09:33:57;;;;;;;6.32;2.70;;;23.50;99.90;;;;;;5059820;28;20187;-91
2022/06/13 09:36:31;;;;;;;5.88;2.53;;;23.50;99.90;;;;;;5059524;28;20212;-91
2022/06/13 09:39:06;;;;;;;5.68;2.80;;;23.50;99.90;;;;;;5059943;28;20208;-91
2022/06/13 09:42:00;;;;;;;4.95;2.28;;;23.30;99.90;;;;;;5060084;28;20286;-91
2022/06/13 09:44:50;;;;;;;4.07;2.65;;;23.00;99.90;;;;;;5059986;28;20180;-90
2022/06/13 09:47:31;;;;;;;3.70;2.20;;;23.10;99.90;;;;;;5059581;28;20295;-91
2022/06/13 09:50:32;;;;;;;4.80;2.45;;;23.10;99.90;;;;;;5058957;28;20173;-91
2022/06/13 09:53:24;;;;;;;6.15;2.80;;;23.20;99.90;;;;;;5058520;28;20208;-91
2022/06/13 09:55:51;;;;;;;3.42;2.10;;;23.40;99.90;;;;;;5058532;28;20216;-91
2022/06/13 09:58:48;;;;;;;5.63;2.10;;;23.70;99.90;;;;;;5077202;28;20267;-91
2022/06/13 10:01:45;;;;;;;5.22;2.20;;;24.30;99.90;;;;;;5077158;28;20227;-91
2022/06/13 10:04:32;;;;;;;4.10;2.35;;;24.50;99.90;;;;;;5075888;28;20168;-91
2022/06/13 10:07:12;;;;;;;5.45;2.22;;;24.40;99.90;;;;;;5058936;28;20186;-91
2022/06/13 10:10:10;;;;;;;2.97;1.90;;;24.50;99.90;;;;;;5060772;28;20180;-92
2022/06/13 10:12:50;;;;;;;2.33;1.65;;;24.90;99.90;;;;;;5064099;28;20672;-91
2022/06/13 10:15:28;;;;;;;4.50;2.20;;;24.60;99.90;;;;;;5078907;28;20250;-91
2022/06/13 10:18:17;;;;;;;4.50;1.92;;;24.40;99.90;;;;;;5066832;28;20183;-91
2022/06/13 10:20:58;;;;;;;5.72;2.10;;;24.20;99.90;;;;;;5066077;28;20184;-91
2022/06/13 10:23:51;;;;;;;3.50;1.95;;;24.20;99.90;;;;;;5065532;28;20271;-91
2022/06/13 10:26:54;;;;;;;5.15;2.30;;;24.30;99.90;;;;;;5083519;28;20230;-91
2022/06/13 10:29:31;;;;;;;4.05;2.00;;;24.30;99.90;;;;;;5048101;28;20192;-91
2022/06/13 10:32:19;;;;;;;4.30;1.88;;;24.50;99.90;;;;;;5079713;28;20251;-91
2022/06/13 10:34:57;;;;;;;3.47;2.05;;;24.30;99.90;;;;;;5062449;28;20285;-92
2022/06/13 10:37:34;;;;;;;4.18;2.30;;;24.30;99.90;;;;;;5079522;28;20185;-91
2022/06/13 10:40:03;;;;;;;3.67;2.05;;;24.50;99.90;;;;;;5080006;28;20215;-91
2022/06/13 10:42:32;;;;;;;3.92;2.20;;;24.90;99.90;;;;;;5063191;28;20200;-91
2022/06/13 10:44:59;;;;;;;2.60;1.85;;;25.10;99.90;;;;;;5064263;28;20187;-91
2022/06/13 10:48:03;;;;;;;4.78;1.88;;;25.30;99.90;;;;;;5064415;28;20181;-91
2022/06/13 10:50:39;;;;;;;4.93;1.90;;;25.80;99.90;;;;;;5064052;28;20188;-91
2022/06/13 10:53:17;;;;;;;2.70;1.65;;;25.70;98.50;;;;;;5063435;28;20192;-91
2022/06/13 10:55:44;;;;;;;3.55;1.67;;;25.40;99.90;;;;;;5078809;28;20208;-91
2022/06/13 10:58:16;;;;;;;4.22;1.50;;;25.40;99.90;;;;;;5062908;28;20196;-91
2022/06/13 11:01:20;;;;;;;4.90;1.70;;;25.40;96.10;;;;;;5062608;28;20177;-91
2022/06/13 11:04:16;;;;;;;2.90;1.50;;;25.50;97.00;;;;;;5062543;28;20193;-91
2022/06/13 11:06:48;;;;;;;2.95;1.65;;;25.00;94.80;;;;;;5062622;28;20179;-91
2022/06/13 11:09:35;;;;;;;3.60;1.35;;;25.20;96.40;;;;;;5062438;28;20168;-91
2022/06/13 11:12:05;;;;;;;1.50;1.30;;;25.00;95.40;;;;;;5062511;28;20342;-91
2022/06/13 11:23:03;;;;;;;2.15;1.40;;;26.20;94.50;;;;;;5078270;28;20185;-92
2022/06/13 11:25:33;;;;;;;2.00;1.40;;;26.60;93.40;;;;;;5078634;28;20201;-92
2022/06/13 11:28:14;;;;;;;6.10;1.83;;;26.80;93.00;;;;;;5062232;28;20238;-91
2022/06/13 11:30:53;;;;;;;2.65;1.75;;;26.50;94.50;;;;;;5061985;28;20259;-92
2022/06/13 11:33:25;;;;;;;2.95;1.50;;;26.30;94.80;;;;;;5062124;28;20184;-91
2022/06/13 11:36:18;;;;;;;2.47;1.58;;;26.20;93.20;;;;;;5061766;28;20208;-91
2022/06/13 11:39:00;;;;;;;3.80;1.50;;;25.10;93.30;;;;;;5061677;28;20184;-92
2022/06/13 11:41:46;;;;;;;3.70;1.50;;;24.90;94.50;;;;;;5062402;28;20227;-91
2022/06/13 11:44:21;;;;;;;2.33;1.40;;;24.80;94.30;;;;;;5078450;28;20211;-92
2022/06/13 11:46:53;;;;;;;3.08;1.48;;;24.70;94.00;;;;;;5061970;28;20176;-91
2022/06/13 11:49:36;;;;;;;2.33;1.52;;;24.90;94.20;;;;;;5061942;28;20210;-91
2022/06/13 11:52:09;;;;;;;3.28;1.52;;;25.30;94.20;;;;;;5062421;28;20212;-91
2022/06/13 11:54:52;;;;;;;5.88;1.48;;;25.60;94.30;;;;;;5061138;28;20184;-92
2022/06/13 11:57:29;;;;;;;3.08;1.40;;;25.90;92.70;;;;;;5061501;28;20192;-91
2022/06/13 12:00:22;;;;;;;2.45;1.52;;;26.30;93.80;;;;;;5061216;28;20177;-92
2022/06/13 12:02:47;;;;;;;3.83;1.42;;;26.70;94.90;;;;;;5061950;28;20200;-91
2022/06/13 12:05:28;;;;;;;3.08;1.60;;;26.70;93.10;;;;;;5061054;28;20234;-91
2022/06/13 12:08:22;;;;;;;4.30;1.63;;;26.90;92.40;;;;;;5078293;28;20250;-91
2022/06/13 12:11:06;;;;;;;2.13;1.50;;;26.50;91.00;;;;;;5059950;28;20196;-92
2022/06/13 12:13:37;;;;;;;1.98;1.50;;;26.50;92.70;;;;;;5078566;28;20181;-91
2022/06/13 12:16:25;;;;;;;3.65;1.30;;;26.30;91.40;;;;;;5061415;28;20258;-91
2022/06/13 12:19:22;;;;;;;2.03;1.35;;;26.10;93.30;;;;;;5061205;28;20176;-91
2022/06/13 12:22:14;;;;;;;2.08;1.40;;;26.40;92.80;;;;;;5061513;28;20219;-91
2022/06/13 12:24:49;;;;;;;2.80;1.40;;;26.30;91.80;;;;;;5078466;28;20216;-92
2022/06/13 12:27:29;;;;;;;2.97;1.30;;;26.40;92.00;;;;;;5061844;28;20274;-91
2022/06/13 12:30:10;;;;;;;3.70;1.35;;;26.50;92.60;;;;;;5060913;28;20184;-91
2022/06/13 12:32:51;;;;;;;3.85;1.40;;;26.70;91.30;;;;;;5061304;28;20200;-91
2022/06/13 12:35:29;;;;;;;4.38;1.45;;;26.80;90.80;;;;;;5061242;28;20211;-91
2022/06/13 12:38:04;;;;;;;2.60;1.48;;;26.60;90.20;;;;;;5061833;28;20263;-91
2022/06/13 12:40:42;;;;;;;2.35;1.30;;;26.30;90.50;;;;;;5060507;28;20172;-91
2022/06/13 12:43:36;;;;;;;2.55;1.17;;;26.40;91.40;;;;;;5061669;28;20177;-91
2022/06/13 12:46:17;;;;;;;2.70;1.40;;;26.30;92.40;;;;;;5078125;28;20637;-91
2022/06/13 12:48:51;;;;;;;2.33;1.58;;;26.40;92.20;;;;;;5061131;28;20184;-92
2022/06/13 12:51:38;;;;;;;2.55;1.15;;;26.90;91.40;;;;;;5062210;28;20294;-91
2022/06/13 12:54:29;;;;;;;3.47;1.60;;;26.80;90.40;;;;;;5066464;28;20200;-89
2022/06/13 12:57:35;;;;;;;3.63;1.50;;;26.90;91.80;;;;;;5049684;28;20193;-91
2022/06/13 13:00:16;;;;;;;2.63;1.60;;;27.10;91.40;;;;;;5009106;28;20200;-92
2022/06/13 13:02:48;;;;;;;2.95;1.65;;;27.40;89.90;;;;;;5042273;28;20197;-91
2022/06/13 13:05:17;;;;;;;3.05;1.63;;;27.60;90.10;;;;;;5058644;28;20259;-92
2022/06/13 13:07:55;;;;;;;1.85;1.30;;;27.80;90.20;;;;;;5058093;28;20185;-92
2022/06/13 13:10:30;;;;;;;2.97;1.60;;;27.20;89.60;;;;;;5058119;28;20177;-92
2022/06/13 13:13:45;;;;;;;1.70;1.40;;;27.50;85.40;;;;;;5057950;28;20510;-91
2022/06/13 13:16:27;;;;;;;2.35;1.50;;;27.60;88.70;;;;;;4996049;28;20206;-92
2022/06/13 13:19:05;;;;;;;1.90;1.27;;;27.30;86.80;;;;;;5040073;28;20177;-91
2022/06/13 13:21:59;;;;;;;2.50;1.38;;;27.30;88.40;;;;;;5040263;28;20722;-92
2022/06/13 13:24:27;;;;;;;2.30;1.60;;;27.10;88.10;;;;;;5021743;28;20185;-91
2022/06/13 13:27:01;;;;;;;4.82;1.70;;;27.00;90.90;;;;;;5060254;28;20208;-91
2022/06/13 13:29:45;;;;;;;2.78;1.52;;;27.00;89.00;;;;;;5060416;28;20204;-92
2022/06/13 13:32:39;;;;;;;3.42;1.50;;;27.00;90.90;;;;;;5060111;28;20188;-91
2022/06/13 13:37:35;;;;;;;2.85;1.60;;;27.10;90.00;;;;;;5023240;28;20252;-42
2022/06/13 13:40:25;;;;;;;3.92;1.63;;;27.50;89.40;;;;;;5029760;28;20182;-41
2022/06/13 13:42:53;;;;;;;3.30;1.70;;;27.10;86.80;;;;;;5030755;28;20206;-41
2022/06/13 13:45:49;;;;;;;2.60;1.70;;;26.90;89.10;;;;;;5029410;28;20233;-41
2022/06/13 13:51:05;;;;;;;3.08;1.50;;;26.40;90.60;;;;;;5067030;28;20223;-40
2022/06/13 13:53:38;;;;;;;3.30;1.50;;;26.10;89.80;;;;;;5052588;28;20221;-38
2022/06/13 13:56:07;;;;;;;2.53;1.70;;;26.30;90.40;;;;;;5069146;28;20223;-40
2022/06/13 13:58:35;;;;;;;5.38;1.98;;;26.50;90.30;;;;;;5072859;28;20207;-38
2022/06/13 14:01:30;;;;;;;1.65;1.50;;;26.80;87.10;;;;;;5073225;28;20177;-41
2022/06/13 14:04:27;;;;;;;3.40;1.52;;;27.00;89.00;;;;;;5072892;28;20180;-41